createdAt,value
2023-02-11T00:01:38.075Z,18.73
2023-02-11T00:04:07.934Z,20.30
2023-02-11T00:06:37.455Z,20.10
2023-02-11T00:09:06.877Z,20.10
2023-02-11T00:11:35.612Z,18.45
2023-02-11T00:14:08.744Z,19.65
2023-02-11T00:16:37.393Z,20.63
2023-02-11T00:19:06.473Z,19.20
2023-02-11T00:21:35.456Z,20.08
2023-02-11T00:24:04.218Z,20.63
2023-02-11T00:26:35.731Z,18.13
2023-02-11T00:29:06.164Z,19.70
2023-02-11T00:31:35.855Z,20.05
2023-02-11T00:34:06.955Z,19.17
2023-02-11T00:36:35.147Z,21.88
2023-02-11T00:39:03.969Z,23.13
2023-02-11T00:41:32.576Z,20.15
2023-02-11T00:44:02.401Z,19.10
2023-02-11T00:46:32.300Z,20.27
2023-02-11T00:49:00.925Z,19.67
2023-02-11T00:51:29.991Z,20.77
2023-02-11T00:53:58.199Z,19.83
2023-02-11T00:56:27.407Z,20.20
2023-02-11T00:58:57.853Z,20.77
2023-02-11T01:01:26.503Z,20.25
2023-02-11T01:03:56.146Z,20.25
2023-02-11T01:06:25.333Z,19.92
2023-02-11T01:08:53.837Z,22.02
2023-02-11T01:11:22.977Z,22.17
2023-02-11T01:13:52.045Z,20.70
2023-02-11T01:16:21.695Z,21.73
2023-02-11T01:18:50.491Z,19.92
2023-02-11T01:21:20.693Z,21.15
2023-02-11T01:23:49.245Z,20.15
2023-02-11T01:26:18.048Z,19.60
2023-02-11T01:28:46.797Z,18.52
2023-02-11T01:31:15.128Z,20.25
2023-02-11T01:33:43.650Z,17.95
2023-02-11T01:36:13.245Z,16.25
2023-02-11T01:38:44.389Z,19.77
2023-02-11T01:41:15.633Z,21.83
2023-02-11T01:43:47.451Z,19.92
2023-02-11T01:46:27.364Z,18.92
2023-02-11T01:49:00.980Z,19.17
2023-02-11T01:51:33.777Z,16.97
2023-02-11T01:54:27.598Z,19.48
2023-02-11T01:57:17.096Z,18.10
2023-02-11T01:59:52.864Z,18.63
2023-02-11T02:02:27.816Z,18.50
2023-02-11T02:05:09.108Z,19.85
2023-02-11T02:07:46.026Z,17.73
2023-02-11T02:10:22.683Z,18.90
2023-02-11T02:12:51.065Z,19.48
2023-02-11T02:15:30.980Z,19.02
2023-02-11T02:18:13.530Z,16.90
2023-02-11T02:21:30.726Z,19.15
2023-02-11T02:24:28.721Z,17.23
2023-02-11T02:27:40.916Z,16.95
2023-02-11T02:30:34.913Z,17.60
2023-02-11T02:33:31.492Z,18.88
2023-02-11T02:36:13.752Z,17.85
2023-02-11T02:38:49.509Z,18.48
2023-02-11T02:41:22.291Z,17.23
2023-02-11T02:43:52.547Z,18.50
2023-02-11T02:46:24.307Z,17.50
2023-02-11T02:48:55.778Z,19.30
2023-02-11T02:52:13.730Z,18.35
2023-02-11T02:55:23.178Z,16.42
2023-02-11T02:58:21.231Z,19.63
2023-02-11T03:01:01.103Z,21.45
2023-02-11T03:03:42.818Z,17.48
2023-02-11T03:06:18.985Z,18.40
2023-02-11T03:08:53.067Z,18.52
2023-02-11T03:11:22.972Z,18.90
2023-02-11T03:13:53.659Z,17.05
2023-02-11T03:16:26.819Z,16.55
2023-02-11T03:19:03.106Z,16.50
2023-02-11T03:21:35.270Z,18.33
2023-02-11T03:24:09.388Z,17.48
2023-02-11T03:26:44.084Z,17.33
2023-02-11T03:29:19.565Z,16.83
2023-02-11T03:31:57.266Z,18.83
2023-02-11T03:34:33.274Z,18.80
2023-02-11T03:37:08.779Z,16.52
2023-02-11T03:39:41.996Z,16.63
2023-02-11T03:42:13.868Z,19.63
2023-02-11T03:44:49.079Z,19.27
2023-02-11T03:47:22.051Z,20.05
2023-02-11T03:49:52.819Z,22.50
2023-02-11T03:52:25.707Z,16.55
2023-02-11T03:54:59.143Z,19.02
2023-02-11T03:57:27.495Z,19.35
2023-02-11T03:59:58.116Z,16.65
2023-02-11T04:02:30.775Z,18.17
2023-02-11T04:04:59.913Z,18.77
2023-02-11T04:07:30.325Z,18.83
2023-02-11T04:09:59.025Z,19.42
2023-02-11T04:12:27.585Z,17.52
2023-02-11T04:14:56.122Z,15.85
2023-02-11T04:17:24.658Z,19.55
2023-02-11T04:19:53.188Z,19.05
2023-02-11T04:22:21.685Z,17.23
2023-02-11T04:24:51.272Z,17.60
2023-02-11T04:27:19.785Z,21.40
2023-02-11T04:29:48.363Z,17.75
2023-02-11T04:32:17.110Z,17.35
2023-02-11T04:34:45.608Z,21.88
2023-02-11T04:37:13.969Z,19.88
2023-02-11T04:39:43.188Z,18.58
2023-02-11T04:42:12.795Z,21.77
2023-02-11T04:44:41.306Z,18.60
2023-02-11T04:47:09.515Z,17.77
2023-02-11T04:49:38.141Z,18.58
2023-02-11T04:52:06.820Z,18.83
2023-02-11T04:54:35.324Z,17.70
2023-02-11T04:57:03.987Z,20.17
2023-02-11T04:59:33.574Z,18.30
2023-02-11T05:02:02.205Z,18.48
2023-02-11T05:04:30.849Z,19.00
2023-02-11T05:06:59.447Z,17.40
2023-02-11T05:09:27.638Z,18.38
2023-02-11T05:11:55.867Z,16.90
2023-02-11T05:14:24.388Z,16.58
2023-02-11T05:16:54.084Z,17.50
2023-02-11T05:19:22.581Z,18.80
2023-02-11T05:22:02.161Z,18.67
2023-02-11T05:24:31.516Z,18.00
2023-02-11T05:27:00.072Z,18.88
2023-02-11T05:29:28.820Z,16.92
2023-02-11T05:32:00.819Z,18.23
2023-02-11T05:34:29.568Z,21.23
2023-02-11T05:36:58.099Z,19.40
2023-02-11T05:39:26.696Z,21.17
2023-02-11T05:41:55.259Z,19.30
2023-02-11T05:44:23.872Z,20.85
2023-02-11T05:46:52.408Z,19.58
2023-02-11T05:49:21.994Z,19.02
2023-02-11T05:51:50.644Z,18.77
2023-02-11T05:54:19.145Z,17.38
2023-02-11T05:56:47.630Z,19.92
2023-02-11T05:59:16.403Z,18.10
2023-02-11T06:01:45.472Z,20.83
2023-02-11T06:04:13.991Z,20.15
2023-02-11T06:06:43.618Z,19.15
2023-02-11T06:09:12.292Z,18.50
2023-02-11T06:11:40.798Z,18.52
2023-02-11T06:14:09.878Z,20.67
2023-02-11T06:16:38.261Z,21.20
2023-02-11T06:19:06.947Z,18.90
2023-02-11T06:21:43.251Z,19.65
2023-02-11T06:24:13.767Z,22.38
2023-02-11T06:26:42.308Z,19.95
2023-02-11T06:29:10.903Z,17.27
2023-02-11T06:31:39.781Z,18.00
2023-02-11T06:34:09.265Z,19.92
2023-02-11T06:36:39.450Z,20.77
2023-02-11T06:39:08.065Z,21.40
2023-02-11T06:41:37.727Z,20.52
2023-02-11T06:44:06.542Z,19.63
2023-02-11T06:46:35.332Z,21.27
2023-02-11T06:49:03.832Z,19.23
2023-02-11T06:51:32.346Z,22.85
2023-02-11T06:54:00.842Z,20.20
2023-02-11T06:56:30.292Z,24.50
2023-02-11T06:58:59.928Z,20.35
2023-02-11T07:01:29.194Z,20.15
2023-02-11T07:03:57.816Z,21.77
2023-02-11T07:06:29.045Z,21.23
2023-02-11T07:08:57.939Z,18.25
2023-02-11T07:11:29.843Z,21.15
2023-02-11T07:14:05.245Z,19.75
2023-02-11T07:16:34.396Z,18.67
2023-02-11T07:19:02.643Z,21.33
2023-02-11T07:21:31.602Z,20.63
2023-02-11T07:24:00.137Z,21.13
2023-02-11T07:26:28.922Z,21.13
2023-02-11T07:28:59.257Z,20.27
2023-02-11T07:31:29.970Z,19.02
2023-02-11T07:34:01.048Z,20.40
2023-02-11T07:36:31.827Z,21.13
2023-02-11T07:39:01.070Z,22.17
2023-02-11T07:41:29.379Z,20.65
2023-02-11T07:43:59.294Z,18.58
2023-02-11T07:46:28.894Z,20.50
2023-02-11T07:48:57.411Z,20.20
2023-02-11T07:51:28.603Z,19.92
2023-02-11T07:53:59.063Z,21.35
2023-02-11T07:56:28.337Z,20.50
2023-02-11T07:58:57.811Z,21.13
2023-02-11T08:01:28.575Z,18.75
2023-02-11T08:03:58.162Z,19.45
2023-02-11T08:06:29.487Z,19.02
2023-02-11T08:08:58.100Z,19.35
2023-02-11T08:11:28.984Z,21.92
2023-02-11T08:13:58.089Z,21.15
2023-02-11T08:16:30.804Z,21.52
2023-02-11T08:19:02.128Z,18.40
2023-02-11T08:21:31.196Z,20.20
2023-02-11T08:23:59.750Z,21.20
2023-02-11T08:26:31.718Z,18.23
2023-02-11T08:29:00.602Z,20.17
2023-02-11T08:31:34.216Z,18.20
2023-02-11T08:34:03.054Z,17.07
2023-02-11T08:36:34.157Z,18.05
2023-02-11T08:39:18.014Z,17.20
2023-02-11T08:41:48.685Z,17.45
2023-02-11T08:44:17.604Z,19.13
2023-02-11T08:46:47.387Z,19.65
2023-02-11T08:49:16.281Z,18.58
2023-02-11T08:51:45.402Z,19.23
2023-02-11T08:54:14.213Z,17.15
2023-02-11T08:56:43.013Z,16.75
2023-02-11T08:59:17.647Z,16.55
2023-02-11T09:01:47.761Z,18.30
2023-02-11T09:04:16.281Z,16.17
2023-02-11T09:06:45.055Z,18.08
2023-02-11T09:09:16.542Z,17.70
2023-02-11T09:11:45.620Z,18.88
2023-02-11T09:14:19.670Z,18.67
2023-02-11T09:16:50.079Z,16.77
2023-02-11T09:19:19.282Z,17.65
2023-02-11T09:21:47.602Z,16.10
2023-02-11T09:24:16.275Z,16.90
2023-02-11T09:26:45.174Z,17.10
2023-02-11T09:29:14.334Z,18.90
2023-02-11T09:31:43.002Z,15.10
2023-02-11T09:34:13.327Z,17.15
2023-02-11T09:36:42.761Z,16.92
2023-02-11T09:39:15.353Z,17.45
2023-02-11T09:42:20.179Z,16.85
2023-02-11T09:44:48.769Z,17.80
2023-02-11T09:47:29.177Z,14.98
2023-02-11T09:50:04.613Z,16.10
2023-02-11T09:52:42.676Z,17.02
2023-02-11T09:55:22.006Z,16.05
2023-02-11T09:57:50.744Z,16.05
2023-02-11T10:00:23.646Z,16.73
2023-02-11T10:03:24.855Z,18.17
2023-02-11T10:06:29.586Z,17.52
2023-02-11T10:09:12.663Z,14.07
2023-02-11T10:11:50.704Z,16.38
2023-02-11T10:14:43.695Z,15.75
2023-02-11T10:17:26.425Z,16.60
2023-02-11T10:20:17.122Z,17.48
2023-02-11T10:22:50.338Z,16.73
2023-02-11T10:25:25.714Z,15.48
2023-02-11T10:27:57.904Z,14.30
2023-02-11T10:30:32.555Z,13.95
2023-02-11T10:33:13.474Z,15.65
2023-02-11T10:35:43.754Z,15.68
2023-02-11T10:38:13.646Z,15.25
2023-02-11T10:40:42.388Z,14.55
2023-02-11T10:43:14.705Z,14.63
2023-02-11T10:45:47.252Z,16.20
2023-02-11T10:48:43.225Z,15.23
2023-02-11T10:51:20.455Z,13.77
2023-02-11T10:53:54.401Z,14.25
2023-02-11T10:56:27.668Z,15.20
2023-02-11T10:59:00.972Z,14.98
2023-02-11T11:01:44.587Z,13.35
2023-02-11T11:04:44.970Z,14.75
2023-02-11T11:07:24.107Z,14.40
2023-02-11T11:09:59.577Z,15.55
2023-02-11T11:12:36.304Z,13.95
2023-02-11T11:15:20.055Z,15.00
2023-02-11T11:17:48.959Z,13.52
2023-02-11T11:20:24.768Z,15.65
2023-02-11T11:23:08.542Z,15.50
2023-02-11T11:25:42.626Z,14.77
2023-02-11T11:28:24.888Z,16.55
2023-02-11T11:30:55.685Z,16.02
2023-02-11T11:33:28.640Z,15.30
2023-02-11T11:36:01.530Z,15.32
2023-02-11T11:38:33.082Z,14.63
2023-02-11T11:41:26.927Z,15.07
2023-02-11T11:44:09.351Z,14.05
2023-02-11T11:46:42.167Z,14.48
2023-02-11T11:49:26.720Z,15.02
2023-02-11T11:52:10.414Z,13.13
2023-02-11T11:54:41.138Z,14.07
2023-02-11T11:57:17.412Z,14.18
2023-02-11T11:59:46.429Z,13.68
2023-02-11T12:02:53.376Z,13.90
2023-02-11T12:05:28.836Z,15.45
2023-02-11T12:08:09.129Z,12.55
2023-02-11T12:11:10.604Z,14.25
2023-02-11T12:13:54.490Z,14.23
2023-02-11T12:16:37.194Z,14.18
2023-02-11T12:19:56.604Z,13.57
2023-02-11T12:22:40.034Z,13.85
2023-02-11T12:25:27.345Z,13.18
2023-02-11T12:28:12.567Z,14.35
2023-02-11T12:30:58.115Z,13.00
2023-02-11T12:33:50.739Z,11.73
2023-02-11T12:36:32.143Z,13.77
2023-02-11T12:39:19.045Z,14.23
2023-02-11T12:42:51.521Z,13.73
2023-02-11T12:45:36.008Z,14.88
2023-02-11T12:48:39.577Z,13.35
2023-02-11T12:51:23.199Z,13.55
2023-02-11T12:54:19.478Z,13.63
2023-02-11T12:56:55.353Z,13.10
2023-02-11T12:59:41.257Z,13.98
2023-02-11T13:02:22.810Z,13.93
2023-02-11T13:04:58.275Z,13.52
2023-02-11T13:07:34.193Z,12.95
2023-02-11T13:10:26.072Z,12.52
2023-02-11T13:13:16.550Z,13.30
2023-02-11T13:15:48.631Z,13.68
2023-02-11T13:18:48.238Z,12.45
2023-02-11T13:21:45.099Z,13.20
2023-02-11T13:24:25.226Z,12.15
2023-02-11T13:27:06.249Z,12.52
2023-02-11T13:30:06.199Z,14.57
2023-02-11T13:33:06.534Z,11.05
2023-02-11T13:35:36.984Z,12.50
2023-02-11T13:38:18.559Z,11.48
2023-02-11T13:40:58.582Z,11.98
2023-02-11T13:43:29.442Z,12.73
2023-02-11T13:46:00.920Z,13.23
2023-02-11T13:48:32.662Z,13.68
2023-02-11T13:51:04.573Z,12.55
2023-02-11T13:53:48.886Z,14.20
2023-02-11T13:56:30.087Z,13.48
2023-02-11T13:59:01.864Z,11.98
2023-02-11T14:02:23.669Z,11.98
2023-02-11T14:05:40.444Z,11.57
2023-02-11T14:08:42.901Z,10.10
2023-02-11T14:11:51.146Z,10.75
2023-02-11T14:14:24.438Z,10.77
2023-02-11T14:17:30.877Z,11.20
2023-02-11T14:20:00.363Z,10.05
2023-02-11T14:22:32.743Z,10.40
2023-02-11T14:25:03.071Z,11.65
2023-02-11T14:27:42.042Z,11.18
2023-02-11T14:30:50.689Z,10.65
2023-02-11T14:33:50.255Z,10.77
2023-02-11T14:36:46.405Z,11.80
2023-02-11T14:39:26.479Z,11.48
2023-02-11T14:41:55.756Z,11.48
2023-02-11T14:44:30.934Z,12.10
2023-02-11T14:46:59.590Z,11.43
2023-02-11T14:49:32.508Z,12.50
2023-02-11T14:52:07.901Z,15.48
2023-02-11T14:54:36.846Z,11.80
2023-02-11T14:57:12.709Z,13.30
2023-02-11T14:59:58.855Z,11.25
2023-02-11T15:02:33.992Z,11.80
2023-02-11T15:05:26.053Z,13.20
2023-02-11T15:07:57.336Z,13.30
2023-02-11T15:10:33.950Z,12.18
2023-02-11T15:13:04.547Z,12.80
2023-02-11T15:15:36.468Z,12.40
2023-02-11T15:18:06.593Z,11.30
2023-02-11T15:20:35.842Z,13.10
2023-02-11T15:23:10.025Z,11.10
2023-02-11T15:25:45.717Z,11.65
2023-02-11T15:28:24.269Z,13.25
2023-02-11T15:31:02.583Z,13.90
2023-02-11T15:33:32.277Z,12.27
2023-02-11T15:36:03.403Z,11.20
2023-02-11T15:38:31.792Z,12.75
2023-02-11T15:41:02.413Z,12.13
2023-02-11T15:43:46.237Z,11.25
2023-02-11T15:46:19.890Z,11.82
2023-02-11T15:48:51.597Z,11.70
2023-02-11T15:51:25.120Z,11.77
2023-02-11T15:53:58.409Z,10.60
2023-02-11T15:56:32.856Z,10.85
2023-02-11T15:59:12.981Z,12.15
2023-02-11T16:01:43.174Z,11.90
2023-02-11T16:04:19.211Z,10.90
2023-02-11T16:06:48.773Z,12.45
2023-02-11T16:09:31.257Z,10.52
2023-02-11T16:12:03.480Z,10.05
2023-02-11T16:14:36.973Z,12.05
2023-02-11T16:17:09.671Z,11.85
2023-02-11T16:19:44.779Z,11.43
2023-02-11T16:22:18.873Z,13.10
2023-02-11T16:24:50.982Z,12.18
2023-02-11T16:27:24.979Z,12.40
2023-02-11T16:29:53.817Z,12.43
2023-02-11T16:32:26.334Z,13.15
2023-02-11T16:34:57.828Z,13.75
2023-02-11T16:37:26.674Z,13.63
2023-02-11T16:39:55.278Z,15.00
2023-02-11T16:42:23.588Z,12.98
2023-02-11T16:44:51.862Z,13.57
2023-02-11T16:47:27.504Z,14.27
2023-02-11T16:49:57.211Z,13.18
2023-02-11T16:52:26.461Z,12.75
2023-02-11T16:54:55.093Z,12.07
2023-02-11T16:57:28.820Z,12.25
2023-02-11T16:59:58.996Z,11.55
2023-02-11T17:02:31.400Z,11.90
2023-02-11T17:05:02.751Z,12.30
2023-02-11T17:07:31.461Z,11.60
2023-02-11T17:10:00.307Z,11.20
2023-02-11T17:12:29.031Z,12.15
2023-02-11T17:14:57.588Z,11.75
2023-02-11T17:17:26.121Z,13.02
2023-02-11T17:19:55.642Z,13.93
2023-02-11T17:22:24.229Z,12.45
2023-02-11T17:24:52.974Z,13.02
2023-02-11T17:27:21.199Z,12.07
2023-02-11T17:29:49.751Z,12.15
2023-02-11T17:32:18.396Z,11.65
2023-02-11T17:34:47.144Z,12.95
2023-02-11T17:37:16.862Z,11.43
2023-02-11T17:39:45.046Z,11.27
2023-02-11T17:42:14.737Z,10.13
2023-02-11T17:44:44.318Z,11.73
2023-02-11T17:47:12.703Z,12.10
2023-02-11T17:49:41.300Z,12.63
2023-02-11T17:52:10.148Z,11.90
2023-02-11T17:54:39.811Z,12.70
2023-02-11T17:57:08.328Z,11.70
2023-02-11T17:59:36.851Z,12.70
2023-02-11T18:02:05.809Z,11.55
2023-02-11T18:04:34.404Z,11.75
2023-02-11T18:07:02.743Z,11.88
2023-02-11T18:09:31.027Z,11.75
2023-02-11T18:12:00.590Z,11.43
2023-02-11T18:14:29.130Z,12.15
2023-02-11T18:16:57.692Z,10.77
2023-02-11T18:19:30.415Z,14.88
2023-02-11T18:22:00.961Z,17.80
2023-02-11T18:24:29.431Z,18.33
2023-02-11T18:26:57.935Z,19.33
2023-02-11T18:29:27.825Z,20.90
2023-02-11T18:31:57.681Z,26.38
2023-02-11T18:34:27.132Z,25.33
2023-02-11T18:36:55.702Z,23.67
2023-02-11T18:39:26.431Z,20.98
2023-02-11T18:41:56.799Z,22.42
2023-02-11T18:44:26.785Z,23.80
2023-02-11T18:46:55.140Z,22.77
2023-02-11T18:49:23.409Z,21.30
2023-02-11T18:51:52.180Z,15.82
2023-02-11T18:54:20.725Z,15.20
2023-02-11T18:56:49.003Z,16.92
2023-02-11T18:59:17.627Z,16.63
2023-02-11T19:01:47.436Z,17.40
2023-02-11T19:04:19.716Z,19.60
2023-02-11T19:06:49.880Z,18.23
2023-02-11T19:09:21.142Z,17.95
2023-02-11T19:11:54.017Z,17.20
2023-02-11T19:14:24.872Z,19.05
2023-02-11T19:16:59.041Z,16.70
2023-02-11T19:19:31.119Z,14.88
2023-02-11T19:22:01.046Z,16.33
2023-02-11T19:24:30.618Z,15.65
2023-02-11T19:27:01.262Z,16.85
2023-02-11T19:29:32.014Z,16.48
2023-02-11T19:32:02.459Z,15.82
2023-02-11T19:34:30.824Z,16.02
2023-02-11T19:37:01.562Z,16.77
2023-02-11T19:39:30.227Z,19.48
2023-02-11T19:41:58.572Z,16.52
2023-02-11T19:44:27.198Z,14.85
2023-02-11T19:46:55.388Z,15.98
2023-02-11T19:49:26.290Z,16.75
2023-02-11T19:51:57.351Z,15.52
2023-02-11T19:54:27.286Z,15.90
2023-02-11T19:56:55.788Z,16.65
2023-02-11T19:59:24.328Z,14.70
2023-02-11T20:01:53.752Z,16.27
2023-02-11T20:04:25.016Z,16.10
2023-02-11T20:06:53.618Z,16.70
2023-02-11T20:09:22.765Z,15.60
2023-02-11T20:11:51.386Z,16.70
2023-02-11T20:14:19.677Z,15.77
2023-02-11T20:16:49.967Z,12.90
2023-02-11T20:19:22.366Z,13.50
2023-02-11T20:21:55.595Z,13.35
2023-02-11T20:24:26.720Z,13.60
2023-02-11T20:26:56.427Z,14.32
2023-02-11T20:29:25.664Z,13.48
2023-02-11T20:31:54.559Z,13.38
2023-02-11T20:34:23.210Z,16.83
2023-02-11T20:36:53.058Z,16.13
2023-02-11T20:39:22.919Z,16.52
2023-02-11T20:41:52.302Z,15.52
2023-02-11T20:44:22.579Z,17.08
2023-02-11T20:46:52.013Z,15.27
2023-02-11T20:49:23.650Z,16.90
2023-02-11T20:51:53.789Z,15.10
2023-02-11T20:54:24.158Z,18.60
2023-02-11T20:56:53.870Z,17.13
2023-02-11T20:59:23.175Z,17.42
2023-02-11T21:01:55.272Z,14.70
2023-02-11T21:04:26.791Z,15.27
2023-02-11T21:06:58.655Z,13.60
2023-02-11T21:09:30.561Z,15.02
2023-02-11T21:11:59.236Z,14.55
2023-02-11T21:14:29.865Z,13.90
2023-02-11T21:16:58.917Z,13.80
2023-02-11T21:19:27.404Z,15.23
2023-02-11T21:22:00.466Z,14.35
2023-02-11T21:24:30.729Z,15.13
2023-02-11T21:26:59.404Z,16.38
2023-02-11T21:29:29.273Z,15.93
2023-02-11T21:31:57.948Z,15.25
2023-02-11T21:34:26.168Z,16.95
2023-02-11T21:36:55.993Z,16.20
2023-02-11T21:39:24.578Z,16.65
2023-02-11T21:41:53.266Z,16.58
2023-02-11T21:44:21.567Z,16.17
2023-02-11T21:46:50.210Z,16.10
2023-02-11T21:49:19.633Z,15.00
2023-02-11T21:51:48.132Z,15.48
2023-02-11T21:54:18.706Z,15.65
2023-02-11T21:56:47.188Z,15.55
2023-02-11T21:59:16.386Z,17.17
2023-02-11T22:01:47.047Z,17.52
2023-02-11T22:04:15.319Z,16.23
2023-02-11T22:06:44.759Z,17.13
2023-02-11T22:09:13.039Z,16.95
2023-02-11T22:11:42.596Z,16.88
2023-02-11T22:14:11.108Z,14.98
2023-02-11T22:16:39.937Z,14.32
2023-02-11T22:19:08.606Z,14.60
2023-02-11T22:21:37.421Z,15.45
2023-02-11T22:24:06.549Z,16.15
2023-02-11T22:26:35.092Z,17.48
2023-02-11T22:29:04.783Z,17.45
2023-02-11T22:31:35.530Z,19.17
2023-02-11T22:34:05.750Z,18.45
2023-02-11T22:36:36.791Z,16.63
2023-02-11T22:39:08.776Z,16.50
2023-02-11T22:41:38.284Z,16.00
2023-02-11T22:44:08.302Z,16.30
2023-02-11T22:46:36.649Z,17.45
2023-02-11T22:49:05.575Z,15.65
2023-02-11T22:51:34.098Z,15.70
2023-02-11T22:54:03.871Z,15.45
2023-02-11T22:56:34.779Z,15.75
2023-02-11T22:59:06.192Z,17.77
2023-02-11T23:01:36.498Z,16.23
2023-02-11T23:04:07.910Z,16.77
2023-02-11T23:06:36.738Z,17.15
2023-02-11T23:09:05.666Z,21.42
2023-02-11T23:11:34.470Z,21.05
2023-02-11T23:14:03.799Z,18.90
2023-02-11T23:16:35.748Z,18.50
2023-02-11T23:19:07.232Z,18.15
2023-02-11T23:21:37.997Z,17.15
2023-02-11T23:24:11.566Z,16.23
2023-02-11T23:26:42.545Z,17.63
2023-02-11T23:29:11.427Z,18.60
2023-02-11T23:31:45.878Z,18.10
2023-02-11T23:34:17.108Z,19.98
2023-02-11T23:36:45.634Z,18.33
2023-02-11T23:39:15.548Z,20.10
2023-02-11T23:41:44.743Z,18.73
2023-02-11T23:44:13.311Z,17.50
2023-02-11T23:46:42.900Z,18.88
2023-02-11T23:49:11.466Z,18.88
2023-02-11T23:51:40.081Z,20.30
2023-02-11T23:54:08.583Z,18.75
2023-02-11T23:56:39.994Z,21.13
2023-02-11T23:59:08.687Z,21.20
